Terminal Aerodrome Forecast
Issued by NWS Pendleton, OR

Home | Current Version | Previous Version | Text Only | Print | Product List | Glossary On
Versions: 1 2 3 4 5 6 7 8 9 10 11 12 13 14 15 16
000
FTUS46 KPDT 252320
TAFPDT
TAF
KPDT 252320Z 2600/2624 18011KT P6SM -SHRA SCT035 BKN080
     FM260200 24010KT P6SM VCSH SCT040 BKN080
     FM260900 16005KT P6SM SCT080
     FM261800 28008KT P6SM SCT200=

USA.gov is the U.S. government's official web portal to all federal, state and local government web resources and services.